F/V Barr Avel — FHAO — position and weather

sailwx.info

Track history (hours):
 
Tides and Currents Weather Stations Pressure Air Temp Water Temp Dewpoint Dewpoint Depression Visibility Wind Speed Wind Dir Waves Ship Positions

F/V Barr Avel

Last reported at 2018-Jun-20 05:24 UTC. Time now 2018-Jun-20 09:28 UTC.
Position N 48°06' W 004°19'.

Length 16 m.

Type: Fishing. MMSI: 228293000.

Date/timePositionNaut miles runAvg speedWind from/ knotsBaromVisibWave heightAir tempDewpointWater temp
2018-Jun-20 05:24N 48°06' W 004°19'0 0.0
2018-Jun-20 05:00N 48°06' W 004°19'0 0.4
2018-Jun-20 04:30N 48°06' W 004°19'5 9.3
2018-Jun-20 04:00N 48°07' W 004°26'4 8.4
2018-Jun-20 03:30N 48°09' W 004°32'4 6.1
2018-Jun-20 02:46N 48°05' W 004°37'3 9.8
2018-Jun-20 02:31N 48°07' W 004°33'2 3.4
2018-Jun-20 02:00N 48°08' W 004°33'4 8.9
2018-Jun-20 01:30N 48°08' W 004°40'4 8.6
2018-Jun-20 01:00N 48°10' W 004°46'2 3.3
2018-Jun-20 00:30N 48°09' W 004°44'0 0.5
2018-Jun-20 00:00N 48°09' W 004°43'2 4.9
2018-Jun-19 23:30N 48°08' W 004°40'5 9.7
2018-Jun-19 23:00N 48°09' W 004°33'1 2.1
2018-Jun-19 22:30N 48°09' W 004°32'2 3.7
2018-Jun-19 22:01N 48°10' W 004°29'8 8.6
2018-Jun-19 21:04N 48°06' W 004°19'0 1.9
2018-Jun-19 21:00N 48°06' W 004°19'0 0.0
2018-Jun-19 04:24N 48°06' W 004°19'0 0.0
2018-Jun-19 04:01N 48°06' W 004°19'0 0.0
2018-Jun-19 03:30N 48°06' W 004°19'0 0.0
2018-Jun-19 03:00N 48°06' W 004°19'0 0.0
2018-Jun-19 02:30N 48°06' W 004°19'2 4.0
2018-Jun-19 02:01N 48°07' W 004°22'5 9.6
2018-Jun-19 01:31N 48°08' W 004°29'2 3.5
2018-Jun-19 00:50N 48°09' W 004°32'0 0.5
2018-Jun-19 00:31N 48°09' W 004°32'0 0.3
2018-Jun-18 23:42N 48°09' W 004°33'0 0.8
2018-Jun-18 23:29N 48°09' W 004°32'0 0.1
2018-Jun-18 23:00N 48°09' W 004°32'1 1.6
2018-Jun-18 22:30N 48°09' W 004°33'4 8.7
2018-Jun-18 22:00N 48°10' W 004°40'4 9.0
2018-Jun-18 21:30N 48°12' W 004°46'5 9.5
2018-Jun-18 21:01N 48°15' W 004°51'2 4.9
2018-Jun-18 20:30N 48°18' W 004°51'4 7.6
2018-Jun-18 20:00N 48°14' W 004°48'4 8.8
2018-Jun-18 19:31N 48°11' W 004°43'5 9.1
2018-Jun-18 19:01N 48°10' W 004°37'5 9.0
2018-Jun-18 18:30N 48°09' W 004°30'5 9.0
2018-Jun-18 17:59N 48°08' W 004°23'3 7.1
2018-Jun-18 17:30N 48°06' W 004°19'0 0.0
2018-Jun-18 05:33N 48°06' W 004°19'0 0.0
2018-Jun-18 05:30N 48°06' W 004°19'0 0.5
2018-Jun-18 05:00N 48°06' W 004°19'510.0
2018-Jun-18 04:31N 48°08' W 004°26'3 6.5
2018-Jun-18 04:00N 48°09' W 004°31'0 0.8
2018-Jun-18 03:30N 48°09' W 004°31'0 0.9
2018-Jun-18 03:00N 48°09' W 004°31'0 0.8
2018-Jun-18 02:28N 48°09' W 004°30'0 0.3
2018-Jun-18 02:00N 48°09' W 004°30'2 4.2
2018-Jun-18 01:29N 48°07' W 004°33'4 8.3
2018-Jun-18 01:00N 48°05' W 004°38'4 8.4
2018-Jun-18 00:30N 48°05' W 004°44'4 8.1
2018-Jun-18 00:01N 48°09' W 004°47'4 4.8
2018-Jun-17 23:13N 48°06' W 004°43'2 7.6
2018-Jun-17 23:00N 48°05' W 004°41'5 9.3
2018-Jun-17 22:29N 48°06' W 004°34'5 9.3
2018-Jun-17 21:56N 48°07' W 004°26'5 8.1
2018-Jun-17 21:21N 48°06' W 004°19'0 0.9
2018-Jun-17 21:01N 48°06' W 004°19'  
2018-Jun-15 05:00N 48°06' W 004°19'0 0.0
2018-Jun-15 04:30N 48°06' W 004°19'1 2.2
2018-Jun-15 04:00N 48°07' W 004°21'5 9.8
2018-Jun-15 03:30N 48°06' W 004°28'510.1
2018-Jun-15 03:00N 48°06' W 004°36'3 5.4
2018-Jun-15 02:29N 48°05' W 004°40'1 1.2
2018-Jun-15 02:00N 48°05' W 004°41'0 0.9
2018-Jun-15 01:28N 48°05' W 004°41'0 1.0
2018-Jun-15 01:00N 48°05' W 004°42'4 8.1
2018-Jun-15 00:30N 48°09' W 004°39'4 7.4
2018-Jun-14 23:55N 48°07' W 004°33'0 0.5
2018-Jun-14 23:30N 48°07' W 004°33'2 4.4
2018-Jun-14 23:00N 48°06' W 004°30'4 8.5
2018-Jun-14 22:30N 48°07' W 004°24'3 6.2
2018-Jun-14 21:58N 48°06' W 004°19'0 0.0
2018-Jun-14 06:08N 48°06' W 004°19'0 0.0
2018-Jun-14 06:00N 48°06' W 004°19'0 0.0
2018-Jun-14 05:30N 48°06' W 004°19'3 6.8
2018-Jun-14 05:01N 48°07' W 004°24'4 8.1
2018-Jun-14 04:30N 48°08' W 004°30'1 1.1
2018-Jun-14 04:00N 48°08' W 004°31'5 9.6
2018-Jun-14 03:30N 48°09' W 004°38'3 6.8
2018-Jun-14 03:00N 48°06' W 004°40'1 2.6
2018-Jun-14 02:30N 48°05' W 004°39'2 3.2
2018-Jun-14 02:00N 48°05' W 004°36'3 6.4
2018-Jun-14 01:30N 48°06' W 004°32'1 1.8
2018-Jun-14 00:57N 48°06' W 004°33'0 0.2
2018-Jun-14 00:28N 48°06' W 004°33'510.3
2018-Jun-14 00:01N 48°06' W 004°40'5 9.7
2018-Jun-13 23:30N 48°09' W 004°47'4 7.7
2018-Jun-13 23:00N 48°11' W 004°43'2 4.8
2018-Jun-13 22:30N 48°11' W 004°39'2 3.1
2018-Jun-13 22:01N 48°09' W 004°38'1 1.1
2018-Jun-13 21:30N 48°10' W 004°38'0 0.7
2018-Jun-13 21:00N 48°10' W 004°38'2 4.3
2018-Jun-13 20:31N 48°11' W 004°41'3 5.9
2018-Jun-13 20:01N 48°08' W 004°41'4 8.7
2018-Jun-13 19:30N 48°08' W 004°35'6 9.0
2018-Jun-13 18:50N 48°08' W 004°26'5 8.2
2018-Jun-13 18:15N 48°06' W 004°19'0 1.1
2018-Jun-13 17:59N 48°06' W 004°20'0 0.0
2018-Jun-13 03:25N 48°06' W 004°19'0 0.0
2018-Jun-13 02:59N 48°06' W 004°19'0 0.0
2018-Jun-13 02:30N 48°06' W 004°19'2 4.2
2018-Jun-13 02:00N 48°07' W 004°22'2 4.4
2018-Jun-13 01:30N 48°08' W 004°25'5 9.5
2018-Jun-13 00:59N 48°06' W 004°32'5 9.6
2018-Jun-13 00:30N 48°05' W 004°38'4 8.4
2018-Jun-13 00:00N 48°09' W 004°39'1 2.2
2018-Jun-12 23:30N 48°11' W 004°39'0 0.5
2018-Jun-12 23:00N 48°10' W 004°39'1 1.1
2018-Jun-12 22:30N 48°11' W 004°40'1 1.3
2018-Jun-12 22:00N 48°12' W 004°40'1 1.9
2018-Jun-12 21:30N 48°11' W 004°41'0 0.5
2018-Jun-12 21:00N 48°11' W 004°41'3 5.4
2018-Jun-12 20:30N 48°10' W 004°45'1 2.9
2018-Jun-12 20:00N 48°10' W 004°42'510.0
2018-Jun-12 19:30N 48°09' W 004°35'510.0
2018-Jun-12 18:59N 48°09' W 004°27'3 5.3
2018-Jun-12 18:28N 48°08' W 004°24'3 7.2
2018-Jun-12 18:00N 48°06' W 004°19'0 0.0
2018-Jun-12 03:42N 48°06' W 004°19'1 3.1
2018-Jun-12 03:30N 48°06' W 004°20'5 9.2
2018-Jun-12 02:59N 48°07' W 004°27'4 9.4
2018-Jun-12 02:31N 48°06' W 004°34'0 0.9
2018-Jun-12 01:58N 48°06' W 004°34'1 1.8
2018-Jun-12 01:30N 48°06' W 004°33'1 1.5
2018-Jun-12 01:00N 48°06' W 004°34'0 0.7
2018-Jun-12 00:31N 48°06' W 004°35'3 5.5
2018-Jun-12 00:01N 48°06' W 004°39'4 8.5
2018-Jun-11 23:31N 48°10' W 004°39'3 6.2
2018-Jun-11 23:00N 48°12' W 004°43'4 7.5
2018-Jun-11 22:30N 48°15' W 004°45'3 5.3
2018-Jun-11 22:01N 48°17' W 004°48'1 2.3
2018-Jun-11 21:31N 48°17' W 004°50'0 0.5
2018-Jun-11 21:00N 48°17' W 004°49'1 2.5
2018-Jun-11 20:31N 48°16' W 004°49'1 1.1
2018-Jun-11 20:01N 48°15' W 004°49'4 8.5
2018-Jun-11 19:31N 48°12' W 004°45'5 9.8
2018-Jun-11 19:01N 48°10' W 004°38'510.0
2018-Jun-11 18:29N 48°09' W 004°31'8 9.4
2018-Jun-11 17:36N 48°06' W 004°19'0 1.8
2018-Jun-11 17:30N 48°06' W 004°19'0 0.0
2018-Jun-11 05:08N 48°06' W 004°19'0 0.0
2018-Jun-11 05:00N 48°06' W 004°19'0 0.0
2018-Jun-11 04:30N 48°06' W 004°19'3 6.6
2018-Jun-11 04:00N 48°07' W 004°24'5 8.5
2018-Jun-11 03:27N 48°06' W 004°31'3 6.3
2018-Jun-11 03:00N 48°06' W 004°35'1 2.4
2018-Jun-11 02:27N 48°05' W 004°37'2 3.5
2018-Jun-11 01:59N 48°06' W 004°40'1 1.4
2018-Jun-11 01:30N 48°05' W 004°39'0 0.4
2018-Jun-11 01:00N 48°05' W 004°39'3 5.6
2018-Jun-11 00:29N 48°04' W 004°43'7 6.3
2018-Jun-10 23:23N 47°58' W 004°42'  
Track history (hours):
 
Tides and Currents Weather Stations Pressure Air Temp Water Temp Dewpoint Dewpoint Depression Visibility Wind Speed Wind Dir Waves Ship Positions

F/V Barr Avel

Last reported at 2018-Jun-20 05:24 UTC. Time now 2018-Jun-20 09:28 UTC.
Position N 48°06' W 004°19'.

Length 16 m.

Type: Fishing. MMSI: 228293000.

Date/timePositionNaut miles runAvg speedWind from/ knotsBaromVisibWave heightAir tempDewpointWater temp
2018-Jun-20 05:24N 48°06' W 004°19'0 0.0
2018-Jun-20 05:00N 48°06' W 004°19'0 0.4
2018-Jun-20 04:30N 48°06' W 004°19'5 9.3
2018-Jun-20 04:00N 48°07' W 004°26'4 8.4
2018-Jun-20 03:30N 48°09' W 004°32'4 6.1
2018-Jun-20 02:46N 48°05' W 004°37'3 9.8
2018-Jun-20 02:31N 48°07' W 004°33'2 3.4
2018-Jun-20 02:00N 48°08' W 004°33'4 8.9
2018-Jun-20 01:30N 48°08' W 004°40'4 8.6
2018-Jun-20 01:00N 48°10' W 004°46'2 3.3
2018-Jun-20 00:30N 48°09' W 004°44'0 0.5
2018-Jun-20 00:00N 48°09' W 004°43'2 4.9
2018-Jun-19 23:30N 48°08' W 004°40'5 9.7
2018-Jun-19 23:00N 48°09' W 004°33'1 2.1
2018-Jun-19 22:30N 48°09' W 004°32'2 3.7
2018-Jun-19 22:01N 48°10' W 004°29'8 8.6
2018-Jun-19 21:04N 48°06' W 004°19'0 1.9
2018-Jun-19 21:00N 48°06' W 004°19'0 0.0
2018-Jun-19 04:24N 48°06' W 004°19'0 0.0
2018-Jun-19 04:01N 48°06' W 004°19'0 0.0
2018-Jun-19 03:30N 48°06' W 004°19'0 0.0
2018-Jun-19 03:00N 48°06' W 004°19'0 0.0
2018-Jun-19 02:30N 48°06' W 004°19'2 4.0
2018-Jun-19 02:01N 48°07' W 004°22'5 9.6
2018-Jun-19 01:31N 48°08' W 004°29'2 3.5
2018-Jun-19 00:50N 48°09' W 004°32'0 0.5
2018-Jun-19 00:31N 48°09' W 004°32'0 0.3
2018-Jun-18 23:42N 48°09' W 004°33'0 0.8
2018-Jun-18 23:29N 48°09' W 004°32'0 0.1
2018-Jun-18 23:00N 48°09' W 004°32'1 1.6
2018-Jun-18 22:30N 48°09' W 004°33'4 8.7
2018-Jun-18 22:00N 48°10' W 004°40'4 9.0
2018-Jun-18 21:30N 48°12' W 004°46'5 9.5
2018-Jun-18 21:01N 48°15' W 004°51'2 4.9
2018-Jun-18 20:30N 48°18' W 004°51'4 7.6
2018-Jun-18 20:00N 48°14' W 004°48'4 8.8
2018-Jun-18 19:31N 48°11' W 004°43'5 9.1
2018-Jun-18 19:01N 48°10' W 004°37'5 9.0
2018-Jun-18 18:30N 48°09' W 004°30'5 9.0
2018-Jun-18 17:59N 48°08' W 004°23'3 7.1
2018-Jun-18 17:30N 48°06' W 004°19'0 0.0
2018-Jun-18 05:33N 48°06' W 004°19'0 0.0
2018-Jun-18 05:30N 48°06' W 004°19'0 0.5
2018-Jun-18 05:00N 48°06' W 004°19'510.0
2018-Jun-18 04:31N 48°08' W 004°26'3 6.5
2018-Jun-18 04:00N 48°09' W 004°31'0 0.8
2018-Jun-18 03:30N 48°09' W 004°31'0 0.9
2018-Jun-18 03:00N 48°09' W 004°31'0 0.8
2018-Jun-18 02:28N 48°09' W 004°30'0 0.3
2018-Jun-18 02:00N 48°09' W 004°30'2 4.2
2018-Jun-18 01:29N 48°07' W 004°33'4 8.3
2018-Jun-18 01:00N 48°05' W 004°38'4 8.4
2018-Jun-18 00:30N 48°05' W 004°44'4 8.1
2018-Jun-18 00:01N 48°09' W 004°47'4 4.8
2018-Jun-17 23:13N 48°06' W 004°43'2 7.6
2018-Jun-17 23:00N 48°05' W 004°41'5 9.3
2018-Jun-17 22:29N 48°06' W 004°34'5 9.3
2018-Jun-17 21:56N 48°07' W 004°26'5 8.1
2018-Jun-17 21:21N 48°06' W 004°19'0 0.9
2018-Jun-17 21:01N 48°06' W 004°19'  
2018-Jun-15 05:00N 48°06' W 004°19'0 0.0
2018-Jun-15 04:30N 48°06' W 004°19'1 2.2
2018-Jun-15 04:00N 48°07' W 004°21'5 9.8
2018-Jun-15 03:30N 48°06' W 004°28'510.1
2018-Jun-15 03:00N 48°06' W 004°36'3 5.4
2018-Jun-15 02:29N 48°05' W 004°40'1 1.2
2018-Jun-15 02:00N 48°05' W 004°41'0 0.9
2018-Jun-15 01:28N 48°05' W 004°41'0 1.0
2018-Jun-15 01:00N 48°05' W 004°42'4 8.1
2018-Jun-15 00:30N 48°09' W 004°39'4 7.4
2018-Jun-14 23:55N 48°07' W 004°33'0 0.5
2018-Jun-14 23:30N 48°07' W 004°33'2 4.4
2018-Jun-14 23:00N 48°06' W 004°30'4 8.5
2018-Jun-14 22:30N 48°07' W 004°24'3 6.2
2018-Jun-14 21:58N 48°06' W 004°19'0 0.0
2018-Jun-14 06:08N 48°06' W 004°19'0 0.0
2018-Jun-14 06:00N 48°06' W 004°19'0 0.0
2018-Jun-14 05:30N 48°06' W 004°19'3 6.8
2018-Jun-14 05:01N 48°07' W 004°24'4 8.1
2018-Jun-14 04:30N 48°08' W 004°30'1 1.1
2018-Jun-14 04:00N 48°08' W 004°31'5 9.6
2018-Jun-14 03:30N 48°09' W 004°38'3 6.8
2018-Jun-14 03:00N 48°06' W 004°40'1 2.6
2018-Jun-14 02:30N 48°05' W 004°39'2 3.2
2018-Jun-14 02:00N 48°05' W 004°36'3 6.4
2018-Jun-14 01:30N 48°06' W 004°32'1 1.8
2018-Jun-14 00:57N 48°06' W 004°33'0 0.2
2018-Jun-14 00:28N 48°06' W 004°33'510.3
2018-Jun-14 00:01N 48°06' W 004°40'5 9.7
2018-Jun-13 23:30N 48°09' W 004°47'4 7.7
2018-Jun-13 23:00N 48°11' W 004°43'2 4.8
2018-Jun-13 22:30N 48°11' W 004°39'2 3.1
2018-Jun-13 22:01N 48°09' W 004°38'1 1.1
2018-Jun-13 21:30N 48°10' W 004°38'0 0.7
2018-Jun-13 21:00N 48°10' W 004°38'2 4.3
2018-Jun-13 20:31N 48°11' W 004°41'3 5.9
2018-Jun-13 20:01N 48°08' W 004°41'4 8.7
2018-Jun-13 19:30N 48°08' W 004°35'6 9.0
2018-Jun-13 18:50N 48°08' W 004°26'5 8.2
2018-Jun-13 18:15N 48°06' W 004°19'0 1.1
2018-Jun-13 17:59N 48°06' W 004°20'0 0.0
2018-Jun-13 03:25N 48°06' W 004°19'0 0.0
2018-Jun-13 02:59N 48°06' W 004°19'0 0.0
2018-Jun-13 02:30N 48°06' W 004°19'2 4.2
2018-Jun-13 02:00N 48°07' W 004°22'2 4.4
2018-Jun-13 01:30N 48°08' W 004°25'5 9.5
2018-Jun-13 00:59N 48°06' W 004°32'5 9.6
2018-Jun-13 00:30N 48°05' W 004°38'4 8.4
2018-Jun-13 00:00N 48°09' W 004°39'1 2.2
2018-Jun-12 23:30N 48°11' W 004°39'0 0.5
2018-Jun-12 23:00N 48°10' W 004°39'1 1.1
2018-Jun-12 22:30N 48°11' W 004°40'1 1.3
2018-Jun-12 22:00N 48°12' W 004°40'1 1.9
2018-Jun-12 21:30N 48°11' W 004°41'0 0.5
2018-Jun-12 21:00N 48°11' W 004°41'3 5.4
2018-Jun-12 20:30N 48°10' W 004°45'1 2.9
2018-Jun-12 20:00N 48°10' W 004°42'510.0
2018-Jun-12 19:30N 48°09' W 004°35'510.0
2018-Jun-12 18:59N 48°09' W 004°27'3 5.3
2018-Jun-12 18:28N 48°08' W 004°24'3 7.2
2018-Jun-12 18:00N 48°06' W 004°19'0 0.0
2018-Jun-12 03:42N 48°06' W 004°19'1 3.1
2018-Jun-12 03:30N 48°06' W 004°20'5 9.2
2018-Jun-12 02:59N 48°07' W 004°27'4 9.4
2018-Jun-12 02:31N 48°06' W 004°34'0 0.9
2018-Jun-12 01:58N 48°06' W 004°34'1 1.8
2018-Jun-12 01:30N 48°06' W 004°33'1 1.5
2018-Jun-12 01:00N 48°06' W 004°34'0 0.7
2018-Jun-12 00:31N 48°06' W 004°35'3 5.5
2018-Jun-12 00:01N 48°06' W 004°39'4 8.5
2018-Jun-11 23:31N 48°10' W 004°39'3 6.2
2018-Jun-11 23:00N 48°12' W 004°43'4 7.5
2018-Jun-11 22:30N 48°15' W 004°45'3 5.3
2018-Jun-11 22:01N 48°17' W 004°48'1 2.3
2018-Jun-11 21:31N 48°17' W 004°50'0 0.5
2018-Jun-11 21:00N 48°17' W 004°49'1 2.5
2018-Jun-11 20:31N 48°16' W 004°49'1 1.1
2018-Jun-11 20:01N 48°15' W 004°49'4 8.5
2018-Jun-11 19:31N 48°12' W 004°45'5 9.8
2018-Jun-11 19:01N 48°10' W 004°38'510.0
2018-Jun-11 18:29N 48°09' W 004°31'8 9.4
2018-Jun-11 17:36N 48°06' W 004°19'0 1.8
2018-Jun-11 17:30N 48°06' W 004°19'0 0.0
2018-Jun-11 05:08N 48°06' W 004°19'0 0.0
2018-Jun-11 05:00N 48°06' W 004°19'0 0.0
2018-Jun-11 04:30N 48°06' W 004°19'3 6.6
2018-Jun-11 04:00N 48°07' W 004°24'5 8.5
2018-Jun-11 03:27N 48°06' W 004°31'3 6.3
2018-Jun-11 03:00N 48°06' W 004°35'1 2.4
2018-Jun-11 02:27N 48°05' W 004°37'2 3.5
2018-Jun-11 01:59N 48°06' W 004°40'1 1.4
2018-Jun-11 01:30N 48°05' W 004°39'0 0.4
2018-Jun-11 01:00N 48°05' W 004°39'3 5.6
2018-Jun-11 00:29N 48°04' W 004°43'7 6.3
2018-Jun-10 23:23N 47°58' W 004°42'  

Dump ship's entire track history